sensor_id;sensor_type;location;lat;lon;timestamp;pressure;altitude;pressure_sealevel;temperature;humidity
83242;BME280;73133;47.848;9.000;2023-10-19T03:03:02;94218.59;;;8.21;92.62
83242;BME280;73133;47.848;9.000;2023-10-19T03:05:30;94214.69;;;8.22;93.08
83242;BME280;73133;47.848;9.000;2023-10-19T03:07:56;94221.31;;;8.21;93.28
83242;BME280;73133;47.848;9.000;2023-10-19T03:10:21;94217.88;;;8.17;92.68
83242;BME280;73133;47.848;9.000;2023-10-19T03:13:00;94214.06;;;8.11;93.43
83242;BME280;73133;47.848;9.000;2023-10-19T03:15:26;94222.91;;;8.19;92.85
83242;BME280;73133;47.848;9.000;2023-10-19T03:17:55;94214.31;;;8.20;92.62
83242;BME280;73133;47.848;9.000;2023-10-19T03:20:20;94207.06;;;8.10;92.58
83242;BME280;73133;47.848;9.000;2023-10-19T03:22:49;94195.38;;;8.10;93.16
83242;BME280;73133;47.848;9.000;2023-10-19T03:25:14;94194.59;;;8.09;93.67
83242;BME280;73133;47.848;9.000;2023-10-19T03:28:00;94191.53;;;8.07;92.74
83242;BME280;73133;47.848;9.000;2023-10-19T03:30:33;94199.34;;;8.05;93.09
83242;BME280;73133;47.848;9.000;2023-10-19T03:33:04;94201.00;;;7.99;93.14
83242;BME280;73133;47.848;9.000;2023-10-19T03:35:30;94222.56;;;7.90;93.05
83242;BME280;73133;47.848;9.000;2023-10-19T03:37:55;94214.47;;;7.83;93.38
83242;BME280;73133;47.848;9.000;2023-10-19T03:40:23;94217.69;;;7.78;93.48
83242;BME280;73133;47.848;9.000;2023-10-19T03:42:57;94216.97;;;7.74;93.59
83242;BME280;73133;47.848;9.000;2023-10-19T03:45:23;94214.28;;;7.70;94.30
83242;BME280;73133;47.848;9.000;2023-10-19T03:47:50;94214.75;;;7.65;93.62
83242;BME280;73133;47.848;9.000;2023-10-19T03:50:18;94204.72;;;7.59;94.10
83242;BME280;73133;47.848;9.000;2023-10-19T03:52:47;94209.41;;;7.55;92.73
83242;BME280;73133;47.848;9.000;2023-10-19T03:55:12;94207.25;;;7.42;92.41
83242;BME280;73133;47.848;9.000;2023-10-19T03:57:43;94211.63;;;7.36;92.42
83242;BME280;73133;47.848;9.000;2023-10-19T04:00:13;94212.06;;;7.31;92.66
83242;BME280;73133;47.848;9.000;2023-10-19T04:02:41;94208.50;;;7.34;93.04
83242;BME280;73133;47.848;9.000;2023-10-19T04:05:08;94208.88;;;7.36;93.14
83242;BME280;73133;47.848;9.000;2023-10-19T04:07:35;94213.16;;;7.37;93.09
83242;BME280;73133;47.848;9.000;2023-10-19T04:10:01;94215.56;;;7.32;93.04
83242;BME280;73133;47.848;9.000;2023-10-19T04:12:33;94209.69;;;7.33;94.30
83242;BME280;73133;47.848;9.000;2023-10-19T04:15:03;94216.19;;;7.43;94.24
83242;BME280;73133;47.848;9.000;2023-10-19T04:17:38;94217.66;;;7.51;93.76
83242;BME280;73133;47.848;9.000;2023-10-19T04:20:08;94217.59;;;7.55;93.68
83242;BME280;73133;47.848;9.000;2023-10-19T04:22:46;94196.16;;;7.57;94.29
83242;BME280;73133;47.848;9.000;2023-10-19T04:25:15;94197.31;;;7.59;94.07
83242;BME280;73133;47.848;9.000;2023-10-19T04:27:42;94184.44;;;7.60;94.38
83242;BME280;73133;47.848;9.000;2023-10-19T04:30:12;94178.88;;;7.67;94.38
83242;BME280;73133;47.848;9.000;2023-10-19T04:32:50;94174.94;;;7.68;94.26
83242;BME280;73133;47.848;9.000;2023-10-19T04:35:16;94182.72;;;7.69;93.81
83242;BME280;73133;47.848;9.000;2023-10-19T04:37:54;94181.16;;;7.72;93.99
83242;BME280;73133;47.848;9.000;2023-10-19T04:40:20;94172.97;;;7.72;94.09
83242;BME280;73133;47.848;9.000;2023-10-19T04:42:47;94174.03;;;7.78;94.66
83242;BME280;73133;47.848;9.000;2023-10-19T04:45:13;94184.13;;;7.81;94.41
83242;BME280;73133;47.848;9.000;2023-10-19T04:47:39;94159.13;;;7.86;94.50
83242;BME280;73133;47.848;9.000;2023-10-19T04:50:05;94180.94;;;7.86;94.40
83242;BME280;73133;47.848;9.000;2023-10-19T04:52:31;94184.47;;;7.83;94.31
83242;BME280;73133;47.848;9.000;2023-10-19T04:54:57;94171.56;;;7.87;94.15
83242;BME280;73133;47.848;9.000;2023-10-19T04:57:22;94178.91;;;7.90;93.82
83242;BME280;73133;47.848;9.000;2023-10-19T04:59:48;94171.13;;;7.88;94.98
83242;BME280;73133;47.848;9.000;2023-10-19T05:02:13;94173.00;;;7.95;94.04
83242;BME280;73133;47.848;9.000;2023-10-19T05:04:38;94178.47;;;7.95;94.44
83242;BME280;73133;47.848;9.000;2023-10-19T05:07:06;94170.28;;;7.95;93.97
83242;BME280;73133;47.848;9.000;2023-10-19T05:09:31;94159.00;;;7.93;94.00
83242;BME280;73133;47.848;9.000;2023-10-19T05:11:57;94162.09;;;7.95;94.70
83242;BME280;73133;47.848;9.000;2023-10-19T05:14:22;94163.97;;;7.98;95.06
83242;BME280;73133;47.848;9.000;2023-10-19T05:16:48;94162.81;;;7.99;94.51
83242;BME280;73133;47.848;9.000;2023-10-19T05:19:14;94161.63;;;8.00;94.55
83242;BME280;73133;47.848;9.000;2023-10-19T05:21:39;94163.94;;;8.02;93.88
83242;BME280;73133;47.848;9.000;2023-10-19T05:24:06;94165.13;;;8.01;94.52
83242;BME280;73133;47.848;9.000;2023-10-19T05:26:33;94162.72;;;8.03;94.88
83242;BME280;73133;47.848;9.000;2023-10-19T05:28:58;94158.78;;;8.07;94.10
83242;BME280;73133;47.848;9.000;2023-10-19T05:31:24;94166.56;;;8.09;93.87
83242;BME280;73133;47.848;9.000;2023-10-19T05:33:49;94156.38;;;8.09;93.97
83242;BME280;73133;47.848;9.000;2023-10-19T05:36:15;94153.31;;;8.07;93.30
83242;BME280;73133;47.848;9.000;2023-10-19T05:38:40;94146.31;;;8.06;93.52
83242;BME280;73133;47.848;9.000;2023-10-19T05:41:06;94150.22;;;8.05;94.06
83242;BME280;73133;47.848;9.000;2023-10-19T05:43:33;94142.03;;;8.05;94.00
83242;BME280;73133;47.848;9.000;2023-10-19T05:45:59;94135.53;;;7.99;94.58
83242;BME280;73133;47.848;9.000;2023-10-19T05:48:25;94143.59;;;8.06;94.95
83242;BME280;73133;47.848;9.000;2023-10-19T05:50:50;94137.25;;;8.13;94.32
83242;BME280;73133;47.848;9.000;2023-10-19T05:53:15;94136.09;;;8.10;94.34
83242;BME280;73133;47.848;9.000;2023-10-19T05:55:47;94131.38;;;8.14;93.92
83242;BME280;73133;47.848;9.000;2023-10-19T05:58:12;94135.69;;;8.12;94.80
83242;BME280;73133;47.848;9.000;2023-10-19T06:00:38;94132.16;;;8.15;93.90
83242;BME280;73133;47.848;9.000;2023-10-19T06:03:04;94125.03;;;8.21;93.99
83242;BME280;73133;47.848;9.000;2023-10-19T06:05:30;94129.63;;;8.24;94.56
83242;BME280;73133;47.848;9.000;2023-10-19T06:07:55;94123.41;;;8.23;94.18
83242;BME280;73133;47.848;9.000;2023-10-19T06:10:21;94120.22;;;8.28;93.91
83242;BME280;73133;47.848;9.000;2023-10-19T06:12:51;94115.47;;;8.33;94.01
83242;BME280;73133;47.848;9.000;2023-10-19T06:15:19;94124.72;;;8.39;93.50
83242;BME280;73133;47.848;9.000;2023-10-19T06:17:46;94118.16;;;8.36;93.26
83242;BME280;73133;47.848;9.000;2023-10-19T06:20:13;94115.34;;;8.40;93.53
83242;BME280;73133;47.848;9.000;2023-10-19T06:22:47;94111.81;;;8.43;93.91
83242;BME280;73133;47.848;9.000;2023-10-19T06:25:17;94118.72;;;8.47;93.33
83242;BME280;73133;47.848;9.000;2023-10-19T06:27:43;94119.91;;;8.46;93.76
83242;BME280;73133;47.848;9.000;2023-10-19T06:30:09;94115.91;;;8.51;94.19
83242;BME280;73133;47.848;9.000;2023-10-19T06:32:35;94108.09;;;8.53;94.34
83242;BME280;73133;47.848;9.000;2023-10-19T06:35:02;94107.19;;;8.59;93.24
83242;BME280;73133;47.848;9.000;2023-10-19T06:37:27;94104.72;;;8.65;92.66
83242;BME280;73133;47.848;9.000;2023-10-19T06:39:53;94105.59;;;8.62;92.64
83242;BME280;73133;47.848;9.000;2023-10-19T06:42:18;94109.41;;;8.64;92.62
83242;BME280;73133;47.848;9.000;2023-10-19T06:44:44;94103.75;;;8.75;92.50
83242;BME280;73133;47.848;9.000;2023-10-19T06:47:09;94100.19;;;8.78;92.72
83242;BME280;73133;47.848;9.000;2023-10-19T06:49:35;94087.38;;;8.75;92.68
83242;BME280;73133;47.848;9.000;2023-10-19T06:52:01;94089.59;;;8.80;92.85
83242;BME280;73133;47.848;9.000;2023-10-19T06:54:29;94084.84;;;8.84;92.62
83242;BME280;73133;47.848;9.000;2023-10-19T06:56:54;94093.81;;;8.85;92.32
83242;BME280;73133;47.848;9.000;2023-10-19T06:59:20;94094.88;;;8.91;93.06
83242;BME280;73133;47.848;9.000;2023-10-19T07:01:45;94098.78;;;8.90;93.31
83242;BME280;73133;47.848;9.000;2023-10-19T07:04:11;94091.69;;;8.92;93.11
83242;BME280;73133;47.848;9.000;2023-10-19T07:06:38;94092.41;;;8.96;92.75
83242;BME280;73133;47.848;9.000;2023-10-19T07:09:04;94097.38;;;9.01;92.57
83242;BME280;73133;47.848;9.000;2023-10-19T07:11:31;94100.25;;;8.94;92.46
83242;BME280;73133;47.848;9.000;2023-10-19T07:14:01;94106.44;;;8.98;93.15
83242;BME280;73133;47.848;9.000;2023-10-19T07:16:32;94111.75;;;9.05;92.69
83242;BME280;73133;47.848;9.000;2023-10-19T07:18:58;94100.88;;;9.02;93.13
83242;BME280;73133;47.848;9.000;2023-10-19T07:21:24;94107.94;;;8.99;92.70
83242;BME280;73133;47.848;9.000;2023-10-19T07:23:50;94094.13;;;9.06;92.19
83242;BME280;73133;47.848;9.000;2023-10-19T07:26:17;94104.84;;;9.17;91.94
83242;BME280;73133;47.848;9.000;2023-10-19T07:28:44;94095.19;;;9.13;92.11
83242;BME280;73133;47.848;9.000;2023-10-19T07:31:10;94095.13;;;9.16;91.77
83242;BME280;73133;47.848;9.000;2023-10-19T07:33:40;94094.38;;;9.32;92.31
83242;BME280;73133;47.848;9.000;2023-10-19T07:36:14;94087.38;;;9.31;91.85
83242;BME280;73133;47.848;9.000;2023-10-19T07:38:43;94086.19;;;9.32;91.82
83242;BME280;73133;47.848;9.000;2023-10-19T07:41:10;94079.69;;;9.42;91.26
83242;BME280;73133;47.848;9.000;2023-10-19T07:43:36;94082.69;;;9.47;90.79
83242;BME280;73133;47.848;9.000;2023-10-19T07:46:02;94083.75;;;9.54;91.12
83242;BME280;73133;47.848;9.000;2023-10-19T07:48:28;94085.38;;;9.67;91.37
83242;BME280;73133;47.848;9.000;2023-10-19T07:50:54;94086.91;;;9.68;90.40
83242;BME280;73133;47.848;9.000;2023-10-19T07:53:19;94085.78;;;9.49;90.62
83242;BME280;73133;47.848;9.000;2023-10-19T07:55:45;94080.56;;;9.55;90.47
83242;BME280;73133;47.848;9.000;2023-10-19T07:58:10;94075.38;;;9.61;90.38
83242;BME280;73133;47.848;9.000;2023-10-19T08:00:36;94079.38;;;9.56;90.88
83242;BME280;73133;47.848;9.000;2023-10-19T08:03:02;94078.38;;;9.66;90.33
83242;BME280;73133;47.848;9.000;2023-10-19T08:05:28;94075.78;;;9.75;90.16
83242;BME280;73133;47.848;9.000;2023-10-19T08:07:53;94079.06;;;9.86;90.23
83242;BME280;73133;47.848;9.000;2023-10-19T08:10:19;94070.66;;;9.94;90.02
83242;BME280;73133;47.848;9.000;2023-10-19T08:12:46;94069.78;;;9.97;89.56
83242;BME280;73133;47.848;9.000;2023-10-19T08:15:15;94063.28;;;10.07;89.04
83242;BME280;73133;47.848;9.000;2023-10-19T08:17:43;94066.38;;;10.09;89.60
83242;BME280;73133;47.848;9.000;2023-10-19T08:20:10;94073.03;;;10.24;89.51
83242;BME280;73133;47.848;9.000;2023-10-19T08:22:42;94048.75;;;10.26;89.51
83242;BME280;73133;47.848;9.000;2023-10-19T08:25:08;94062.69;;;10.32;89.24
83242;BME280;73133;47.848;9.000;2023-10-19T08:27:46;94061.41;;;10.36;89.52
83242;BME280;73133;47.848;9.000;2023-10-19T08:30:17;94059.69;;;10.26;88.99
83242;BME280;73133;47.848;9.000;2023-10-19T08:32:44;94060.19;;;10.37;89.34
83242;BME280;73133;47.848;9.000;2023-10-19T08:35:16;94054.72;;;10.37;88.67
83242;BME280;73133;47.848;9.000;2023-10-19T08:37:45;94066.09;;;10.36;87.49
83242;BME280;73133;47.848;9.000;2023-10-19T08:40:11;94052.81;;;10.50;87.19
83242;BME280;73133;47.848;9.000;2023-10-19T08:42:44;94058.63;;;10.65;87.32
83242;BME280;73133;47.848;9.000;2023-10-19T08:45:14;94057.63;;;10.59;86.53
83242;BME280;73133;47.848;9.000;2023-10-19T08:47:52;94051.72;;;10.60;86.62
83242;BME280;73133;47.848;9.000;2023-10-19T08:50:21;94042.16;;;10.94;85.54
83242;BME280;73133;47.848;9.000;2023-10-19T08:52:52;94032.34;;;11.22;85.92
83242;BME280;73133;47.848;9.000;2023-10-19T08:55:18;94030.59;;;11.40;86.15
83242;BME280;73133;47.848;9.000;2023-10-19T08:57:44;94026.84;;;11.60;85.70
83242;BME280;73133;47.848;9.000;2023-10-19T09:00:10;94034.88;;;11.67;85.35
83242;BME280;73133;47.848;9.000;2023-10-19T09:02:35;94034.09;;;11.79;85.01
83242;BME280;73133;47.848;9.000;2023-10-19T09:05:05;94022.56;;;11.71;85.10
83242;BME280;73133;47.848;9.000;2023-10-19T09:07:31;94026.19;;;11.56;84.13
83242;BME280;73133;47.848;9.000;2023-10-19T09:09:59;94038.28;;;11.45;84.51
83242;BME280;73133;47.848;9.000;2023-10-19T09:12:26;94034.34;;;11.47;84.83
83242;BME280;73133;47.848;9.000;2023-10-19T09:14:52;94043.41;;;11.56;83.63
83242;BME280;73133;47.848;9.000;2023-10-19T09:17:27;94035.16;;;11.69;84.28
83242;BME280;73133;47.848;9.000;2023-10-19T09:19:54;94040.91;;;11.87;84.84
83242;BME280;73133;47.848;9.000;2023-10-19T09:22:21;94044.09;;;11.86;84.59
83242;BME280;73133;47.848;9.000;2023-10-19T09:24:50;94035.09;;;11.85;83.88
83242;BME280;73133;47.848;9.000;2023-10-19T09:27:20;94036.50;;;12.02;83.84
83242;BME280;73133;47.848;9.000;2023-10-19T09:29:47;94048.34;;;11.99;82.90
83242;BME280;73133;47.848;9.000;2023-10-19T09:32:12;94044.25;;;12.04;82.75
83242;BME280;73133;47.848;9.000;2023-10-19T09:34:41;94047.72;;;11.95;82.90
83242;BME280;73133;47.848;9.000;2023-10-19T09:37:09;94042.63;;;12.06;83.81
83242;BME280;73133;47.848;9.000;2023-10-19T09:39:35;94043.59;;;12.12;83.68
83242;BME280;73133;47.848;9.000;2023-10-19T09:42:10;94047.81;;;11.92;82.58
83242;BME280;73133;47.848;9.000;2023-10-19T09:44:43;94040.69;;;11.94;82.65
83242;BME280;73133;47.848;9.000;2023-10-19T09:47:15;94051.44;;;12.01;83.44
83242;BME280;73133;47.848;9.000;2023-10-19T09:49:42;94029.63;;;12.19;83.72
83242;BME280;73133;47.848;9.000;2023-10-19T09:52:11;94027.63;;;12.20;84.16
83242;BME280;73133;47.848;9.000;2023-10-19T09:54:54;94005.19;;;12.56;84.35
83242;BME280;73133;47.848;9.000;2023-10-19T10:00:20;93993.19;;;12.93;83.23
83242;BME280;73133;47.848;9.000;2023-10-19T10:02:49;93983.13;;;12.90;82.81
83242;BME280;73133;47.848;9.000;2023-10-19T10:10:46;93977.22;;;12.79;83.27
83242;BME280;73133;47.848;9.000;2023-10-19T10:13:37;93972.47;;;13.01;83.57
83242;BME280;73133;47.848;9.000;2023-10-19T10:16:03;93985.06;;;13.12;82.40
83242;BME280;73133;47.848;9.000;2023-10-19T10:18:33;93992.53;;;13.42;81.77
83242;BME280;73133;47.848;9.000;2023-10-19T10:23:40;93987.97;;;13.39;80.63
83242;BME280;73133;47.848;9.000;2023-10-19T10:26:06;93982.59;;;13.35;80.68
83242;BME280;73133;47.848;9.000;2023-10-19T10:28:33;93980.69;;;13.63;79.95
83242;BME280;73133;47.848;9.000;2023-10-19T10:31:11;93979.09;;;14.11;77.82
83242;BME280;73133;47.848;9.000;2023-10-19T10:33:50;93971.94;;;14.59;76.84
83242;BME280;73133;47.848;9.000;2023-10-19T10:36:17;93971.91;;;15.38;74.14
83242;BME280;73133;47.848;9.000;2023-10-19T10:38:48;93964.56;;;16.63;70.22
83242;BME280;73133;47.848;9.000;2023-10-19T10:41:21;93960.88;;;17.10;69.04
83242;BME280;73133;47.848;9.000;2023-10-19T10:43:51;93961.78;;;17.37;68.77
83242;BME280;73133;47.848;9.000;2023-10-19T10:46:18;93953.16;;;17.14;68.92
83242;BME280;73133;47.848;9.000;2023-10-19T10:48:44;93951.63;;;16.99;69.84
83242;BME280;73133;47.848;9.000;2023-10-19T10:51:20;93948.44;;;16.76;69.70
83242;BME280;73133;47.848;9.000;2023-10-19T10:53:48;93952.16;;;17.17;69.38
83242;BME280;73133;47.848;9.000;2023-10-19T10:56:14;93950.06;;;17.27;68.05
83242;BME280;73133;47.848;9.000;2023-10-19T10:58:39;93945.78;;;18.10;65.38
83242;BME280;73133;47.848;9.000;2023-10-19T11:01:05;93944.88;;;18.85;63.38
83242;BME280;73133;47.848;9.000;2023-10-19T11:03:31;93949.97;;;18.46;62.49
83242;BME280;73133;47.848;9.000;2023-10-19T11:06:06;93948.16;;;17.83;64.49
83242;BME280;73133;47.848;9.000;2023-10-19T11:08:33;93947.75;;;17.90;65.12
83242;BME280;73133;47.848;9.000;2023-10-19T11:11:04;93939.31;;;17.99;65.16
83242;BME280;73133;47.848;9.000;2023-10-19T11:13:30;93924.88;;;18.56;64.13
83242;BME280;73133;47.848;9.000;2023-10-19T11:15:58;93906.03;;;19.85;60.33
83242;BME280;73133;47.848;9.000;2023-10-19T11:18:40;93914.66;;;22.42;53.06
83242;BME280;73133;47.848;9.000;2023-10-19T11:21:10;93909.78;;;24.01;48.31
83242;BME280;73133;47.848;9.000;2023-10-19T11:26:01;93893.63;;;26.73;41.10
83242;BME280;73133;47.848;9.000;2023-10-19T11:28:34;93890.97;;;29.26;37.00
83242;BME280;73133;47.848;9.000;2023-10-19T11:31:19;93891.00;;;32.23;32.28
83242;BME280;73133;47.848;9.000;2023-10-19T11:33:47;93878.09;;;32.47;30.30
83242;BME280;73133;47.848;9.000;2023-10-19T11:36:19;93859.38;;;32.69;30.80
83242;BME280;73133;47.848;9.000;2023-10-19T11:38:47;93857.72;;;34.83;27.94
83242;BME280;73133;47.848;9.000;2023-10-19T11:41:13;93854.38;;;34.02;28.60
83242;BME280;73133;47.848;9.000;2023-10-19T11:43:40;93861.66;;;36.16;25.41
83242;BME280;73133;47.848;9.000;2023-10-19T11:46:06;93870.94;;;36.26;26.16
83242;BME280;73133;47.848;9.000;2023-10-19T11:48:35;93864.59;;;33.07;29.69
83242;BME280;73133;47.848;9.000;2023-10-19T11:51:02;93863.25;;;26.72;39.83
83242;BME280;73133;47.848;9.000;2023-10-19T11:53:32;93848.31;;;23.65;46.93
83242;BME280;73133;47.848;9.000;2023-10-19T11:56:12;93846.81;;;22.58;49.73
83242;BME280;73133;47.848;9.000;2023-10-19T11:58:38;93838.81;;;21.46;53.11
83242;BME280;73133;47.848;9.000;2023-10-19T12:01:06;93843.00;;;20.25;56.73
83242;BME280;73133;47.848;9.000;2023-10-19T12:03:38;93839.88;;;19.52;59.83
83242;BME280;73133;47.848;9.000;2023-10-19T12:06:06;93835.31;;;19.12;62.10
83242;BME280;73133;47.848;9.000;2023-10-19T12:08:35;93838.06;;;18.81;63.48
83242;BME280;73133;47.848;9.000;2023-10-19T12:11:01;93838.81;;;17.84;67.12
83242;BME280;73133;47.848;9.000;2023-10-19T12:13:28;93831.50;;;17.11;68.46
83242;BME280;73133;47.848;9.000;2023-10-19T12:15:54;93844.06;;;16.91;70.04
83242;BME280;73133;47.848;9.000;2023-10-19T12:18:24;93830.91;;;16.72;71.28
83242;BME280;73133;47.848;9.000;2023-10-19T12:20:51;93837.38;;;16.83;71.11
83242;BME280;73133;47.848;9.000;2023-10-19T12:23:22;93831.28;;;16.79;71.30
83242;BME280;73133;47.848;9.000;2023-10-19T12:25:48;93837.84;;;16.52;72.47
83242;BME280;73133;47.848;9.000;2023-10-19T12:28:14;93846.53;;;16.60;72.84
83242;BME280;73133;47.848;9.000;2023-10-19T12:30:43;93849.13;;;16.64;72.62
83242;BME280;73133;47.848;9.000;2023-10-19T12:33:08;93849.91;;;16.64;72.15
83242;BME280;73133;47.848;9.000;2023-10-19T12:35:45;93847.50;;;16.86;71.51
83242;BME280;73133;47.848;9.000;2023-10-19T12:38:15;93830.22;;;18.54;65.48
83242;BME280;73133;47.848;9.000;2023-10-19T12:40:46;93817.22;;;18.39;65.08
83242;BME280;73133;47.848;9.000;2023-10-19T12:43:12;93811.88;;;18.30;65.13
83242;BME280;73133;47.848;9.000;2023-10-19T12:45:39;93819.53;;;17.95;66.46
83242;BME280;73133;47.848;9.000;2023-10-19T12:48:05;93819.69;;;17.86;67.19
83242;BME280;73133;47.848;9.000;2023-10-19T12:50:30;93812.25;;;17.77;67.99
83242;BME280;73133;47.848;9.000;2023-10-19T12:52:56;93824.25;;;17.48;67.34
83242;BME280;73133;47.848;9.000;2023-10-19T12:55:22;93823.66;;;17.44;68.01
83242;BME280;73133;47.848;9.000;2023-10-19T12:57:47;93819.72;;;20.22;58.48
83242;BME280;73133;47.848;9.000;2023-10-19T13:00:13;93818.28;;;22.29;52.66
83242;BME280;73133;47.848;9.000;2023-10-19T13:02:52;93811.97;;;21.10;55.26
83242;BME280;73133;47.848;9.000;2023-10-19T13:05:26;93808.28;;;20.03;57.83
83242;BME280;73133;47.848;9.000;2023-10-19T13:07:51;93803.69;;;19.04;61.17
83242;BME280;73133;47.848;9.000;2023-10-19T13:10:16;93811.22;;;18.98;61.72
83242;BME280;73133;47.848;9.000;2023-10-19T13:12:42;93811.97;;;18.41;64.29
83242;BME280;73133;47.848;9.000;2023-10-19T13:15:08;93810.13;;;17.66;66.65
83242;BME280;73133;47.848;9.000;2023-10-19T13:17:39;93805.25;;;18.02;66.21
83242;BME280;73133;47.848;9.000;2023-10-19T13:20:06;93796.53;;;17.89;66.05
83242;BME280;73133;47.848;9.000;2023-10-19T13:22:41;93799.03;;;17.87;66.28
83242;BME280;73133;47.848;9.000;2023-10-19T13:25:07;93797.22;;;17.63;68.04
83242;BME280;73133;47.848;9.000;2023-10-19T13:27:34;93803.16;;;17.56;68.22
83242;BME280;73133;47.848;9.000;2023-10-19T13:30:00;93802.34;;;17.50;68.47
83242;BME280;73133;47.848;9.000;2023-10-19T13:32:29;93795.31;;;17.14;70.73
83242;BME280;73133;47.848;9.000;2023-10-19T13:34:56;93788.41;;;17.24;70.34
83242;BME280;73133;47.848;9.000;2023-10-19T13:37:21;93780.91;;;17.10;71.96
83242;BME280;73133;47.848;9.000;2023-10-19T13:39:47;93780.97;;;17.16;71.72
83242;BME280;73133;47.848;9.000;2023-10-19T13:42:13;93792.75;;;17.11;71.47
83242;BME280;73133;47.848;9.000;2023-10-19T13:44:39;93799.28;;;17.28;71.02
83242;BME280;73133;47.848;9.000;2023-10-19T13:47:04;93790.38;;;17.04;71.60
83242;BME280;73133;47.848;9.000;2023-10-19T13:49:32;93778.91;;;17.11;71.26
83242;BME280;73133;47.848;9.000;2023-10-19T13:51:57;93777.50;;;17.01;71.05
83242;BME280;73133;47.848;9.000;2023-10-19T13:54:23;93780.31;;;16.86;71.98
83242;BME280;73133;47.848;9.000;2023-10-19T13:56:48;93766.94;;;17.19;70.87
83242;BME280;73133;47.848;9.000;2023-10-19T13:59:15;93749.69;;;17.50;70.23
83242;BME280;73133;47.848;9.000;2023-10-19T14:01:41;93749.25;;;18.24;66.67
83242;BME280;73133;47.848;9.000;2023-10-19T14:04:06;93745.69;;;19.71;61.87
83242;BME280;73133;47.848;9.000;2023-10-19T14:06:32;93733.22;;;20.31;59.11
83242;BME280;73133;47.848;9.000;2023-10-19T14:08:57;93730.97;;;20.63;57.68
83242;BME280;73133;47.848;9.000;2023-10-19T14:11:22;93747.63;;;20.30;58.62
83242;BME280;73133;47.848;9.000;2023-10-19T14:13:48;93762.38;;;19.23;60.80
83242;BME280;73133;47.848;9.000;2023-10-19T14:16:15;93774.69;;;19.11;61.59
83242;BME280;73133;47.848;9.000;2023-10-19T14:18:41;93765.66;;;18.79;62.67
83242;BME280;73133;47.848;9.000;2023-10-19T14:21:16;93756.22;;;18.14;65.18
83242;BME280;73133;47.848;9.000;2023-10-19T14:23:42;93750.88;;;18.62;64.17
83242;BME280;73133;47.848;9.000;2023-10-19T14:26:09;93757.09;;;18.25;65.50
83242;BME280;73133;47.848;9.000;2023-10-19T14:28:35;93762.44;;;18.03;66.64
83242;BME280;73133;47.848;9.000;2023-10-19T14:31:04;93755.94;;;18.37;65.30
83242;BME280;73133;47.848;9.000;2023-10-19T14:33:30;93754.09;;;18.03;65.76
83242;BME280;73133;47.848;9.000;2023-10-19T14:35:56;93740.16;;;17.71;67.33
83242;BME280;73133;47.848;9.000;2023-10-19T14:38:21;93733.16;;;17.56;68.23
83242;BME280;73133;47.848;9.000;2023-10-19T14:40:47;93724.84;;;17.56;68.88
83242;BME280;73133;47.848;9.000;2023-10-19T14:43:13;93707.19;;;17.33;70.08
83242;BME280;73133;47.848;9.000;2023-10-19T14:45:40;93693.91;;;17.17;70.80
83242;BME280;73133;47.848;9.000;2023-10-19T14:48:06;93679.34;;;17.22;71.13
83242;BME280;73133;47.848;9.000;2023-10-19T14:50:35;93676.69;;;17.27;70.71
83242;BME280;73133;47.848;9.000;2023-10-19T14:53:01;93671.38;;;17.50;68.86
83242;BME280;73133;47.848;9.000;2023-10-19T14:55:27;93661.00;;;17.91;67.67
83242;BME280;73133;47.848;9.000;2023-10-19T14:57:54;93641.28;;;18.15;65.97
83242;BME280;73133;47.848;9.000;2023-10-19T15:00:23;93642.59;;;17.93;66.06
83242;BME280;73133;47.848;9.000;2023-10-19T15:02:56;93635.97;;;18.11;65.49
83242;BME280;73133;47.848;9.000;2023-10-19T15:05:26;93630.69;;;18.19;65.67
83242;BME280;73133;47.848;9.000;2023-10-19T15:07:53;93618.38;;;17.88;67.25
83242;BME280;73133;47.848;9.000;2023-10-19T15:10:20;93617.69;;;17.67;68.21
83242;BME280;73133;47.848;9.000;2023-10-19T15:12:46;93613.84;;;17.39;70.36
83242;BME280;73133;47.848;9.000;2023-10-19T15:15:12;93602.94;;;17.30;71.58
83242;BME280;73133;47.848;9.000;2023-10-19T15:17:42;93588.44;;;16.94;73.21
83242;BME280;73133;47.848;9.000;2023-10-19T15:20:10;93595.50;;;16.75;74.83
83242;BME280;73133;47.848;9.000;2023-10-19T15:22:36;93592.63;;;16.64;74.96
83242;BME280;73133;47.848;9.000;2023-10-19T15:25:03;93597.53;;;16.40;76.44
83242;BME280;73133;47.848;9.000;2023-10-19T15:27:29;93606.78;;;16.17;77.75
83242;BME280;73133;47.848;9.000;2023-10-19T15:29:55;93606.97;;;15.98;78.34
83242;BME280;73133;47.848;9.000;2023-10-19T15:32:25;93614.41;;;15.92;78.67
83242;BME280;73133;47.848;9.000;2023-10-19T15:34:50;93614.34;;;15.72;79.82
83242;BME280;73133;47.848;9.000;2023-10-19T15:37:17;93605.59;;;15.59;79.98
83242;BME280;73133;47.848;9.000;2023-10-19T15:39:42;93600.88;;;15.50;80.28
83242;BME280;73133;47.848;9.000;2023-10-19T15:42:09;93604.59;;;15.32;80.88
83242;BME280;73133;47.848;9.000;2023-10-19T15:44:35;93598.38;;;15.08;82.06
83242;BME280;73133;47.848;9.000;2023-10-19T15:47:01;93594.75;;;15.02;82.61
83242;BME280;73133;47.848;9.000;2023-10-19T15:49:26;93593.31;;;14.92;82.95
83242;BME280;73133;47.848;9.000;2023-10-19T15:51:52;93583.59;;;14.82;83.55
83242;BME280;73133;47.848;9.000;2023-10-19T15:54:17;93586.44;;;14.73;84.07
83242;BME280;73133;47.848;9.000;2023-10-19T15:56:42;93586.03;;;14.65;84.57
83242;BME280;73133;47.848;9.000;2023-10-19T15:59:08;93585.50;;;14.52;85.85
83242;BME280;73133;47.848;9.000;2023-10-19T16:01:33;93582.91;;;14.48;86.52
83242;BME280;73133;47.848;9.000;2023-10-19T16:03:59;93573.78;;;14.42;86.99
83242;BME280;73133;47.848;9.000;2023-10-19T16:06:25;93573.34;;;14.35;87.85
83242;BME280;73133;47.848;9.000;2023-10-19T16:08:50;93579.03;;;14.31;88.11
83242;BME280;73133;47.848;9.000;2023-10-19T16:11:17;93575.97;;;14.29;87.92
83242;BME280;73133;47.848;9.000;2023-10-19T16:13:43;93570.50;;;14.20;88.63
83242;BME280;73133;47.848;9.000;2023-10-19T16:16:09;93569.63;;;14.14;89.23
83242;BME280;73133;47.848;9.000;2023-10-19T16:18:36;93575.03;;;14.08;89.27
83242;BME280;73133;47.848;9.000;2023-10-19T16:21:07;93578.88;;;14.02;89.41
83242;BME280;73133;47.848;9.000;2023-10-19T16:23:33;93586.28;;;13.96;90.07